Time;durP1;ratioP1;P1;durP2;ratioP2;P2;SDS_P1;SDS_P2;PMS_P1;PMS_P2;Temp;Humidity;BMP_temperature;BMP_pressure;BME280_temperature;BME280_humidity;BME280_pressure;Samples;Min_cycle;Max_cycle;Signal;HPM_P1;HPM_P2
2023/09/10 00:00:34;;;;;;;16.35;14.95;;;17.70;99.90;;;;;;5025373;28;20041;-45
2023/09/10 00:03:00;;;;;;;14.23;13.13;;;17.70;99.90;;;;;;5026295;28;20484;-45
2023/09/10 00:05:26;;;;;;;19.20;17.77;;;17.60;99.90;;;;;;5026280;28;20037;-46
2023/09/10 00:07:52;;;;;;;16.88;15.57;;;17.60;99.90;;;;;;5044289;28;20087;-44
2023/09/10 00:10:18;;;;;;;24.85;22.80;;;17.60;99.90;;;;;;5044931;28;20143;-45
2023/09/10 00:12:44;;;;;;;19.70;18.20;;;17.50;99.90;;;;;;5032986;28;20136;-45
2023/09/10 00:15:09;;;;;;;22.48;20.67;;;17.50;99.90;;;;;;5044275;28;20037;-45
2023/09/10 00:17:35;;;;;;;20.70;18.85;;;17.50;99.90;;;;;;5026402;28;20074;-44
2023/09/10 00:20:01;;;;;;;20.38;18.50;;;17.50;99.90;;;;;;5044074;28;20037;-44
2023/09/10 00:22:26;;;;;;;19.17;17.38;;;17.50;99.90;;;;;;5026079;28;20127;-44
2023/09/10 00:24:52;;;;;;;22.73;20.85;;;17.50;99.90;;;;;;5044250;28;20048;-46
2023/09/10 00:27:18;;;;;;;25.35;23.02;;;17.50;99.90;;;;;;5044023;28;20037;-45
2023/09/10 00:29:43;;;;;;;23.90;21.83;;;17.40;99.90;;;;;;5025327;28;20037;-46
2023/09/10 00:32:09;;;;;;;25.30;23.00;;;17.40;99.90;;;;;;5009754;28;20041;-45
2023/09/10 00:34:35;;;;;;;26.23;24.02;;;17.40;99.90;;;;;;5044101;28;20504;-46
2023/09/10 00:37:01;;;;;;;23.13;21.23;;;17.40;99.90;;;;;;5044026;28;20133;-47
2023/09/10 00:39:26;;;;;;;24.25;22.33;;;17.40;99.90;;;;;;4996548;28;20495;-45
2023/09/10 00:41:54;;;;;;;23.02;21.02;;;17.30;99.90;;;;;;5043909;28;20033;-43
2023/09/10 00:44:23;;;;;;;29.30;26.92;;;17.30;99.90;;;;;;5044130;28;20044;-43
2023/09/10 00:46:52;;;;;;;27.35;24.83;;;17.30;99.90;;;;;;5019504;28;20132;-44
2023/09/10 00:49:17;;;;;;;32.85;30.02;;;17.30;99.90;;;;;;5025757;28;20693;-45
2023/09/10 00:51:45;;;;;;;38.03;34.83;;;17.30;99.90;;;;;;5047825;28;20151;-45
2023/09/10 00:54:11;;;;;;;38.10;34.90;;;17.40;99.90;;;;;;5047816;28;20463;-45
2023/09/10 00:56:37;;;;;;;36.65;33.47;;;17.40;99.90;;;;;;5047954;28;20041;-46
2023/09/10 00:59:03;;;;;;;39.75;36.42;;;17.40;99.90;;;;;;5047392;28;20048;-47
2023/09/10 01:01:29;;;;;;;41.40;37.92;;;17.40;99.90;;;;;;5047302;28;20040;-46
2023/09/10 01:03:55;;;;;;;41.13;37.83;;;17.50;99.90;;;;;;5029943;28;20155;-44
2023/09/10 01:06:21;;;;;;;47.08;42.97;;;17.50;99.90;;;;;;5029317;28;20452;-43
2023/09/10 01:08:47;;;;;;;44.08;40.03;;;17.50;99.90;;;;;;5028869;28;20061;-44
2023/09/10 01:11:27;;;;;;;20.65;18.88;;;17.50;99.90;;;;;;5029636;28;20076;-47
2023/09/10 01:14:12;;;;;;;22.70;20.77;;;17.50;99.90;;;;;;5029055;28;20037;-44
2023/09/10 01:16:58;;;;;;;21.08;19.38;;;17.50;99.90;;;;;;5047257;28;20033;-45
2023/09/10 01:19:48;;;;;;;25.00;22.52;;;17.40;99.90;;;;;;5046790;28;20119;-45
2023/09/10 01:22:25;;;;;;;28.55;26.10;;;17.40;99.90;;;;;;5046709;28;20045;-44
2023/09/10 01:24:51;;;;;;;30.05;27.45;;;17.30;99.90;;;;;;5012728;28;20060;-44
2023/09/10 01:27:18;;;;;;;28.42;25.92;;;17.30;99.90;;;;;;5029318;28;20514;-46
2023/09/10 01:29:44;;;;;;;29.80;27.02;;;17.30;99.90;;;;;;5033733;28;20041;-43
2023/09/10 01:32:29;;;;;;;36.47;33.47;;;17.30;99.90;;;;;;5046738;28;20389;-44
2023/09/10 01:35:08;;;;;;;34.58;31.38;;;17.30;99.90;;;;;;5029461;28;20451;-44
2023/09/10 01:37:44;;;;;;;35.83;32.50;;;17.20;99.90;;;;;;5047183;28;20063;-44
2023/09/10 01:40:16;;;;;;;40.90;37.15;;;17.20;99.90;;;;;;5046854;28;20079;-44
2023/09/10 01:42:44;;;;;;;40.53;36.95;;;17.20;99.90;;;;;;5023624;28;20120;-44
2023/09/10 01:45:10;;;;;;;43.03;39.47;;;17.20;99.90;;;;;;5028990;28;20538;-46
2023/09/10 01:47:36;;;;;;;45.33;41.13;;;17.20;99.90;;;;;;5029207;28;20140;-45
2023/09/10 01:50:02;;;;;;;43.47;39.78;;;17.30;99.90;;;;;;5028929;28;20097;-44
2023/09/10 01:52:28;;;;;;;42.47;38.78;;;17.30;99.90;;;;;;5046726;28;20041;-45
2023/09/10 01:54:53;;;;;;;40.80;37.33;;;17.30;99.90;;;;;;5029047;28;20060;-44
2023/09/10 01:57:19;;;;;;;29.33;26.83;;;17.30;99.90;;;;;;5047099;28;20041;-46
2023/09/10 01:59:45;;;;;;;30.65;28.08;;;17.20;99.90;;;;;;5028149;28;20661;-46
2023/09/10 02:02:10;;;;;;;32.35;29.65;;;17.20;99.90;;;;;;5046277;28;20041;-47
2023/09/10 02:04:36;;;;;;;30.05;27.45;;;17.20;99.90;;;;;;5028524;28;20052;-48
2023/09/10 02:07:02;;;;;;;31.05;28.48;;;17.10;99.90;;;;;;5028742;28;20037;-45
2023/09/10 02:09:27;;;;;;;27.10;24.73;;;17.10;99.90;;;;;;5045785;28;20072;-48
2023/09/10 02:11:53;;;;;;;31.02;28.48;;;17.00;99.90;;;;;;5055452;28;20036;-44
2023/09/10 02:14:18;;;;;;;29.85;26.95;;;17.00;99.90;;;;;;5046457;28;20407;-44
2023/09/10 02:16:44;;;;;;;28.45;26.08;;;16.90;99.90;;;;;;5046532;28;20064;-47
2023/09/10 02:19:10;;;;;;;33.45;30.55;;;16.90;99.90;;;;;;5046182;28;20045;-47
2023/09/10 02:21:35;;;;;;;28.00;25.35;;;16.90;99.90;;;;;;5027857;28;20823;-47
2023/09/10 02:24:02;;;;;;;22.98;21.08;;;16.90;99.90;;;;;;5046628;28;20113;-47
2023/09/10 02:26:28;;;;;;;19.50;17.95;;;16.90;99.90;;;;;;5028785;28;20052;-46
2023/09/10 02:28:53;;;;;;;22.48;20.40;;;16.90;99.90;;;;;;5045979;28;20048;-44
2023/09/10 02:31:20;;;;;;;21.17;19.48;;;16.90;99.90;;;;;;5045559;28;20535;-46
2023/09/10 02:33:46;;;;;;;22.10;20.30;;;16.90;99.90;;;;;;5027922;28;20051;-45
2023/09/10 02:36:11;;;;;;;28.45;25.63;;;16.90;99.90;;;;;;5045982;28;20033;-46
2023/09/10 02:38:37;;;;;;;24.13;21.95;;;16.90;99.90;;;;;;5027651;28;20338;-47
2023/09/10 02:41:03;;;;;;;24.02;21.98;;;16.90;99.90;;;;;;5027356;28;20040;-45
2023/09/10 02:43:28;;;;;;;23.83;21.92;;;16.80;99.90;;;;;;5027998;28;20064;-46
2023/09/10 02:45:54;;;;;;;25.52;23.33;;;16.80;99.90;;;;;;5011692;28;20531;-46
2023/09/10 02:48:19;;;;;;;29.40;26.70;;;16.70;99.90;;;;;;5040008;28;20143;-44
2023/09/10 02:50:45;;;;;;;30.08;27.48;;;16.70;99.90;;;;;;5045175;28;20506;-47
2023/09/10 02:53:11;;;;;;;31.02;28.30;;;16.70;99.90;;;;;;5011221;28;20049;-44
2023/09/10 02:55:36;;;;;;;35.80;32.80;;;16.70;99.90;;;;;;5045735;28;20128;-45
2023/09/10 02:58:02;;;;;;;34.25;31.35;;;16.70;99.90;;;;;;5045147;28;20047;-46
2023/09/10 03:00:27;;;;;;;31.60;29.10;;;16.60;99.90;;;;;;5045258;28;20388;-46
2023/09/10 03:02:54;;;;;;;31.30;28.88;;;16.60;99.90;;;;;;5045541;28;20076;-48
2023/09/10 03:05:20;;;;;;;29.25;26.85;;;16.60;99.90;;;;;;5044915;28;20484;-46
2023/09/10 03:07:46;;;;;;;30.38;27.90;;;16.60;99.90;;;;;;5027205;28;20159;-45
2023/09/10 03:10:12;;;;;;;32.42;29.70;;;16.60;99.90;;;;;;5044426;28;20132;-46
2023/09/10 03:12:37;;;;;;;31.92;29.25;;;16.60;99.90;;;;;;5053047;28;20044;-44
2023/09/10 03:15:03;;;;;;;30.23;27.70;;;16.50;99.90;;;;;;5044912;28;20044;-48
2023/09/10 03:17:29;;;;;;;28.50;26.13;;;16.50;99.90;;;;;;5027013;28;20141;-44
2023/09/10 03:19:54;;;;;;;30.25;27.75;;;16.50;99.90;;;;;;5044695;28;20041;-48
2023/09/10 03:22:20;;;;;;;35.42;32.15;;;16.50;99.90;;;;;;5044838;28;20045;-47
2023/09/10 03:24:45;;;;;;;34.63;31.75;;;16.50;99.90;;;;;;5045089;28;20599;-44
2023/09/10 03:27:11;;;;;;;36.72;33.53;;;16.50;99.90;;;;;;5045319;28;20045;-45
2023/09/10 03:29:37;;;;;;;37.95;34.75;;;16.60;99.90;;;;;;5026936;28;20040;-44
2023/09/10 03:32:06;;;;;;;37.25;33.95;;;16.60;99.90;;;;;;5045327;28;20037;-47
2023/09/10 03:34:31;;;;;;;37.78;34.38;;;16.60;99.90;;;;;;5026634;28;20055;-46
2023/09/10 03:36:57;;;;;;;33.67;30.70;;;16.60;99.90;;;;;;5045379;28;20040;-48
2023/09/10 03:39:23;;;;;;;27.63;25.20;;;16.60;99.90;;;;;;5044765;28;20044;-46
2023/09/10 03:41:49;;;;;;;21.13;19.52;;;16.60;99.90;;;;;;5044638;28;20045;-44
2023/09/10 03:44:15;;;;;;;20.52;18.73;;;16.60;99.90;;;;;;5044630;28;20067;-44
2023/09/10 03:46:40;;;;;;;23.17;21.33;;;16.50;99.90;;;;;;5021062;28;20866;-46
2023/09/10 03:49:06;;;;;;;27.92;25.65;;;16.50;99.90;;;;;;5024795;28;20128;-44
2023/09/10 03:51:31;;;;;;;25.70;23.60;;;16.50;99.90;;;;;;5044585;28;20345;-47
2023/09/10 03:53:57;;;;;;;25.83;23.83;;;16.50;99.90;;;;;;5026426;28;20710;-43
2023/09/10 03:56:23;;;;;;;32.95;30.15;;;16.50;99.90;;;;;;5010607;28;20033;-45
2023/09/10 03:58:49;;;;;;;32.97;30.10;;;16.50;99.90;;;;;;5044094;28;20045;-43
2023/09/10 04:01:14;;;;;;;34.60;31.67;;;16.50;99.90;;;;;;5025964;28;20425;-43
2023/09/10 04:03:40;;;;;;;28.33;26.02;;;16.50;99.90;;;;;;5044300;28;20041;-43
2023/09/10 04:06:06;;;;;;;27.38;25.20;;;16.50;99.90;;;;;;5044154;28;20041;-46
2023/09/10 04:08:31;;;;;;;26.60;24.42;;;16.50;99.90;;;;;;5025528;28;20041;-45
2023/09/10 04:10:57;;;;;;;27.63;25.38;;;16.50;99.90;;;;;;5032657;28;20032;-45
2023/09/10 04:13:22;;;;;;;26.00;24.00;;;16.40;99.90;;;;;;5046279;28;20457;-47
2023/09/10 04:15:48;;;;;;;25.35;23.45;;;16.50;99.90;;;;;;5026199;28;20048;-43
2023/09/10 04:18:13;;;;;;;27.75;25.42;;;16.50;99.90;;;;;;5043869;28;20045;-47
2023/09/10 04:20:39;;;;;;;29.55;27.17;;;16.50;99.90;;;;;;5026003;28;20409;-44
2023/09/10 04:23:05;;;;;;;28.58;26.02;;;16.40;99.90;;;;;;5026402;28;20079;-44
2023/09/10 04:25:31;;;;;;;23.23;21.23;;;16.40;99.90;;;;;;5025384;28;20048;-42
2023/09/10 04:27:57;;;;;;;29.73;27.33;;;16.40;99.90;;;;;;5025747;28;20253;-44
2023/09/10 04:30:22;;;;;;;30.05;27.55;;;16.40;99.90;;;;;;5025832;28;20033;-43
2023/09/10 04:32:48;;;;;;;29.15;26.58;;;16.30;99.90;;;;;;5043834;28;20125;-45
2023/09/10 04:35:14;;;;;;;28.45;25.95;;;16.30;99.90;;;;;;5026004;28;20115;-42
2023/09/10 04:37:39;;;;;;;28.48;25.77;;;16.30;99.90;;;;;;5009711;28;20445;-45
2023/09/10 04:40:07;;;;;;;25.63;23.38;;;16.30;99.90;;;;;;5025258;28;20067;-46
2023/09/10 04:42:35;;;;;;;27.20;24.92;;;16.30;99.90;;;;;;5026326;28;20041;-44
2023/09/10 04:45:03;;;;;;;22.85;21.00;;;16.30;99.90;;;;;;5044315;28;20076;-44
2023/09/10 04:47:29;;;;;;;24.08;21.85;;;16.30;99.90;;;;;;5037088;28;20045;-46
2023/09/10 04:49:54;;;;;;;18.38;16.98;;;16.20;99.90;;;;;;5026032;28;20373;-44
2023/09/10 04:52:20;;;;;;;20.58;18.77;;;16.20;99.90;;;;;;5044683;28;20037;-45
2023/09/10 04:54:46;;;;;;;23.10;21.20;;;16.10;99.90;;;;;;5026677;28;20056;-46
2023/09/10 04:57:11;;;;;;;13.68;12.68;;;16.00;99.90;;;;;;5009626;28;20436;-44
2023/09/10 04:59:37;;;;;;;16.67;15.18;;;16.00;99.90;;;;;;5043935;28;20075;-45
2023/09/10 05:02:04;;;;;;;17.33;15.93;;;16.00;99.90;;;;;;5043608;28;20124;-45
2023/09/10 05:04:30;;;;;;;15.75;14.55;;;15.90;99.90;;;;;;5044174;28;20583;-42
2023/09/10 05:06:55;;;;;;;15.65;14.55;;;15.90;99.90;;;;;;5044045;28;20041;-44
2023/09/10 05:09:21;;;;;;;17.08;15.77;;;15.90;99.90;;;;;;5025586;28;20049;-46
2023/09/10 05:11:47;;;;;;;17.30;15.90;;;16.00;99.90;;;;;;5052438;28;20453;-46
2023/09/10 05:14:12;;;;;;;24.88;22.92;;;16.00;99.90;;;;;;5025660;28;20431;-45
2023/09/10 05:16:38;;;;;;;27.17;24.70;;;16.10;99.90;;;;;;5025665;28;20063;-44
2023/09/10 05:19:03;;;;;;;21.90;20.25;;;16.10;99.90;;;;;;5014221;28;20084;-44
2023/09/10 05:21:29;;;;;;;25.77;23.65;;;16.10;99.90;;;;;;5042976;28;20551;-43
2023/09/10 05:23:54;;;;;;;25.55;23.38;;;16.20;99.90;;;;;;5026239;28;20052;-45
2023/09/10 05:26:22;;;;;;;21.42;19.73;;;16.30;99.90;;;;;;5025865;28;20045;-45
2023/09/10 05:28:47;;;;;;;24.85;22.85;;;16.30;99.90;;;;;;5043533;28;20048;-44
2023/09/10 05:31:13;;;;;;;24.10;22.30;;;16.40;99.90;;;;;;5043069;28;20435;-43
2023/09/10 05:33:38;;;;;;;23.05;21.02;;;16.40;99.90;;;;;;5026286;28;20052;-48
2023/09/10 05:36:04;;;;;;;26.80;24.80;;;16.50;99.90;;;;;;5045037;28;20048;-44
2023/09/10 05:38:30;;;;;;;24.80;22.90;;;16.60;99.90;;;;;;5047094;28;20183;-44
2023/09/10 05:41:04;;;;;;;24.20;22.15;;;16.80;99.90;;;;;;5028811;28;20440;-44
2023/09/10 05:43:30;;;;;;;23.73;21.83;;;16.90;99.90;;;;;;5047312;28;20407;-44
2023/09/10 05:45:56;;;;;;;21.00;19.40;;;17.00;99.90;;;;;;5047263;28;20049;-45
2023/09/10 05:48:22;;;;;;;22.42;20.65;;;17.10;99.90;;;;;;5022385;28;20044;-47
2023/09/10 05:50:48;;;;;;;24.23;22.27;;;17.40;99.90;;;;;;5046852;28;20518;-44
2023/09/10 05:53:14;;;;;;;23.27;21.38;;;17.70;99.90;;;;;;5029515;28;20043;-43
2023/09/10 05:55:41;;;;;;;25.70;23.60;;;18.10;99.90;;;;;;5029336;28;20503;-44
2023/09/10 05:58:08;;;;;;;25.15;23.05;;;18.50;99.90;;;;;;5028738;28;20663;-44
2023/09/10 06:00:34;;;;;;;23.23;21.35;;;19.00;99.90;;;;;;5046754;28;20098;-46
2023/09/10 06:02:59;;;;;;;22.83;20.92;;;19.40;99.90;;;;;;5047388;28;20187;-44
2023/09/10 06:05:25;;;;;;;17.83;16.42;;;19.80;99.90;;;;;;5047362;28;20048;-44
2023/09/10 06:07:50;;;;;;;19.25;17.65;;;20.30;99.90;;;;;;5028332;28;20496;-45
2023/09/10 06:10:16;;;;;;;19.77;17.92;;;20.70;99.90;;;;;;5027998;28;20160;-44
2023/09/10 06:12:43;;;;;;;18.67;17.17;;;21.00;99.90;;;;;;5046250;28;20048;-46
2023/09/10 06:15:08;;;;;;;19.83;18.30;;;21.40;99.90;;;;;;5028199;28;20114;-43
2023/09/10 06:17:35;;;;;;;25.23;23.02;;;21.60;99.90;;;;;;5028576;28;20480;-46
2023/09/10 06:20:02;;;;;;;33.47;30.80;;;22.00;99.90;;;;;;5045834;28;20052;-45
2023/09/10 06:22:28;;;;;;;38.08;34.85;;;22.30;99.90;;;;;;5028705;28;20120;-45
2023/09/10 06:24:54;;;;;;;34.92;32.03;;;22.60;99.90;;;;;;5046945;28;20349;-44
2023/09/10 06:27:19;;;;;;;33.33;30.27;;;23.00;99.90;;;;;;5046446;28;20490;-47
2023/09/10 06:29:45;;;;;;;31.83;29.13;;;23.30;99.90;;;;;;5027394;28;20048;-46
2023/09/10 06:32:11;;;;;;;30.45;28.15;;;23.50;99.90;;;;;;5028414;28;20063;-43
2023/09/10 06:34:37;;;;;;;33.42;30.52;;;23.80;99.90;;;;;;5028081;28;20518;-45
2023/09/10 06:37:03;;;;;;;36.40;33.05;;;24.00;99.90;;;;;;5028023;28;20079;-45
2023/09/10 06:39:29;;;;;;;36.25;33.38;;;24.30;99.90;;;;;;5045801;28;20049;-44
2023/09/10 06:41:55;;;;;;;39.10;35.97;;;24.50;99.90;;;;;;5045815;28;20072;-45
2023/09/10 06:44:20;;;;;;;38.30;35.20;;;24.40;99.90;;;;;;5045883;28;20454;-44
2023/09/10 06:46:46;;;;;;;40.25;36.67;;;24.70;99.90;;;;;;5020897;28;20042;-43
2023/09/10 06:49:12;;;;;;;39.17;35.85;;;25.00;99.90;;;;;;5045002;28;20041;-44
2023/09/10 06:51:37;;;;;;;43.13;39.58;;;25.30;99.90;;;;;;5027246;28;20048;-45
2023/09/10 06:54:03;;;;;;;40.25;36.90;;;25.50;99.90;;;;;;5026970;28;20077;-44
2023/09/10 06:56:29;;;;;;;40.40;37.10;;;25.50;99.90;;;;;;5028070;28;20120;-46
2023/09/10 06:58:55;;;;;;;41.75;38.45;;;25.40;99.90;;;;;;5047549;28;20045;-44
2023/09/10 07:01:21;;;;;;;42.10;38.75;;;25.30;99.90;;;;;;5044781;28;20170;-44
2023/09/10 07:03:51;;;;;;;42.75;39.22;;;25.00;99.90;;;;;;5045339;28;20842;-44
2023/09/10 07:06:16;;;;;;;43.70;39.78;;;24.70;99.90;;;;;;5045557;28;20036;-43
2023/09/10 07:08:42;;;;;;;43.78;40.28;;;24.50;99.90;;;;;;5026550;28;20071;-43
2023/09/10 07:11:08;;;;;;;42.15;38.65;;;24.40;99.90;;;;;;5028485;28;20140;-44
2023/09/10 07:13:36;;;;;;;45.47;41.63;;;24.40;99.90;;;;;;5043559;28;20135;-43
2023/09/10 07:16:02;;;;;;;44.65;40.95;;;24.30;99.90;;;;;;5045198;28;20056;-44
2023/09/10 07:18:32;;;;;;;44.75;41.05;;;24.30;99.90;;;;;;5044746;28;20041;-43
2023/09/10 07:21:03;;;;;;;43.28;39.53;;;24.30;99.90;;;;;;5044601;28;20131;-45
2023/09/10 07:23:28;;;;;;;45.22;41.33;;;24.40;99.90;;;;;;5026262;28;20076;-45
2023/09/10 07:25:55;;;;;;;43.60;40.00;;;24.40;99.90;;;;;;5026888;28;20103;-44
2023/09/10 07:28:20;;;;;;;42.10;38.70;;;24.40;99.90;;;;;;5026371;28;20052;-45
2023/09/10 07:30:46;;;;;;;45.92;42.03;;;24.50;99.90;;;;;;5026102;28;20450;-43
2023/09/10 07:33:12;;;;;;;45.30;41.53;;;24.60;99.90;;;;;;5045086;28;20048;-46
2023/09/10 07:35:38;;;;;;;43.50;39.75;;;24.50;99.90;;;;;;5044587;28;20119;-45
2023/09/10 07:38:03;;;;;;;42.15;38.30;;;24.70;99.90;;;;;;5025847;28;20049;-44
2023/09/10 07:40:29;;;;;;;45.33;41.58;;;24.70;99.90;;;;;;5044411;28;20044;-44
2023/09/10 07:42:55;;;;;;;44.42;40.83;;;24.70;99.90;;;;;;5026864;28;20067;-44
2023/09/10 07:45:21;;;;;;;44.65;41.05;;;24.70;99.90;;;;;;5044686;28;20068;-47
2023/09/10 07:47:47;;;;;;;44.38;40.38;;;24.80;99.90;;;;;;5018551;28;20471;-45
2023/09/10 07:50:13;;;;;;;43.63;40.05;;;24.70;99.90;;;;;;5026208;28;20376;-45
2023/09/10 07:52:38;;;;;;;44.67;40.75;;;24.80;99.90;;;;;;5044265;28;20308;-44
2023/09/10 07:55:04;;;;;;;47.22;43.03;;;24.90;99.90;;;;;;5025995;28;20052;-44
2023/09/10 07:57:30;;;;;;;46.40;42.28;;;24.90;99.90;;;;;;5026239;28;20439;-45
2023/09/10 07:59:55;;;;;;;46.95;42.95;;;25.10;99.90;;;;;;5025975;28;20037;-44
2023/09/10 08:02:22;;;;;;;44.63;40.90;;;25.10;99.90;;;;;;5043766;28;20534;-44
2023/09/10 08:04:48;;;;;;;44.88;40.97;;;25.20;99.90;;;;;;5044191;28;20053;-45
2023/09/10 08:07:14;;;;;;;47.17;42.72;;;25.30;99.90;;;;;;5026390;28;20055;-45
2023/09/10 08:09:39;;;;;;;45.13;41.20;;;25.30;99.90;;;;;;5043424;28;20392;-45
2023/09/10 08:12:05;;;;;;;43.25;39.67;;;25.40;99.90;;;;;;5051323;28;20041;-45
2023/09/10 08:14:31;;;;;;;43.28;39.35;;;25.50;99.90;;;;;;5025510;28;20136;-46
2023/09/10 08:16:56;;;;;;;45.00;41.22;;;25.60;99.90;;;;;;5044666;28;20099;-47
2023/09/10 08:19:22;;;;;;;43.35;39.75;;;25.60;99.90;;;;;;5009790;28;20036;-48
2023/09/10 08:21:48;;;;;;;44.60;40.92;;;25.60;99.90;;;;;;5049731;28;20548;-45
2023/09/10 08:24:14;;;;;;;40.50;36.75;;;25.60;99.90;;;;;;5037017;28;20044;-45
2023/09/10 08:26:39;;;;;;;44.22;40.72;;;25.70;99.90;;;;;;5050780;28;20037;-45
2023/09/10 08:29:05;;;;;;;44.47;40.78;;;25.70;99.90;;;;;;5043670;28;20088;-45
2023/09/10 08:31:32;;;;;;;43.75;40.15;;;25.70;99.90;;;;;;5042592;28;20045;-45
2023/09/10 08:33:57;;;;;;;40.25;36.72;;;25.70;99.90;;;;;;5038291;28;20443;-46
2023/09/10 08:36:23;;;;;;;42.20;38.58;;;25.80;99.90;;;;;;5044297;28;20036;-47
2023/09/10 08:38:49;;;;;;;40.72;37.10;;;25.90;99.90;;;;;;5043860;28;20172;-46
2023/09/10 08:42:07;;;;;;;39.65;36.33;;;26.00;99.90;;;;;;5026058;28;20396;-49
2023/09/10 08:44:33;;;;;;;41.30;37.97;;;26.10;99.90;;;;;;5017756;28;20183;-48
2023/09/10 08:47:01;;;;;;;41.03;37.00;;;26.10;99.90;;;;;;5024978;28;20498;-44
2023/09/10 08:49:29;;;;;;;39.90;36.42;;;26.20;99.90;;;;;;5043617;28;20048;-46
2023/09/10 08:51:56;;;;;;;37.15;34.05;;;26.30;99.90;;;;;;5026636;28;20762;-45
2023/09/10 08:54:22;;;;;;;36.25;33.03;;;26.40;99.90;;;;;;5044330;28;20056;-45
2023/09/10 08:56:49;;;;;;;37.70;34.40;;;26.40;99.90;;;;;;5044162;28;20045;-48
2023/09/10 08:59:15;;;;;;;36.63;33.65;;;26.50;99.90;;;;;;5008946;28;20080;-44
2023/09/10 09:01:44;;;;;;;37.95;34.60;;;26.50;99.90;;;;;;5042597;28;20121;-47
2023/09/10 09:04:11;;;;;;;36.20;32.85;;;26.40;99.90;;;;;;5025418;28;20399;-49
2023/09/10 09:06:40;;;;;;;37.80;34.50;;;26.60;99.90;;;;;;5025300;28;20148;-49
2023/09/10 09:09:07;;;;;;;36.35;33.22;;;26.60;99.90;;;;;;5020989;28;20505;-46
2023/09/10 09:11:37;;;;;;;34.10;31.17;;;26.50;99.90;;;;;;5032395;28;20067;-47
2023/09/10 09:14:07;;;;;;;34.83;31.92;;;26.60;99.90;;;;;;5025524;28;20041;-48
2023/09/10 09:16:34;;;;;;;32.42;29.42;;;26.60;99.90;;;;;;5026292;28;20498;-48
2023/09/10 09:19:04;;;;;;;35.50;32.42;;;26.80;99.90;;;;;;5025847;28;20520;-49
2023/09/10 09:21:30;;;;;;;33.80;30.20;;;26.70;99.90;;;;;;5024043;28;20034;-47
2023/09/10 09:24:01;;;;;;;33.33;30.58;;;26.80;99.90;;;;;;5024685;28;20037;-47
2023/09/10 09:26:28;;;;;;;32.28;29.58;;;26.90;99.90;;;;;;5025990;28;20133;-45
2023/09/10 09:28:56;;;;;;;28.98;26.50;;;26.90;99.90;;;;;;5023920;28;20085;-48
2023/09/10 09:31:22;;;;;;;29.70;27.33;;;27.10;99.90;;;;;;5026668;28;20056;-45
2023/09/10 09:33:48;;;;;;;28.38;25.67;;;27.10;99.90;;;;;;5027204;28;20041;-49
2023/09/10 09:36:13;;;;;;;29.15;26.50;;;27.10;99.90;;;;;;5009608;28;20409;-46
2023/09/10 09:38:44;;;;;;;27.15;24.75;;;27.00;99.90;;;;;;5032384;28;20045;-48
2023/09/10 09:41:10;;;;;;;27.08;24.80;;;27.10;99.90;;;;;;5014171;28;20088;-47
2023/09/10 09:43:35;;;;;;;27.20;24.60;;;27.20;99.90;;;;;;5025862;28;20049;-49
2023/09/10 09:46:02;;;;;;;24.38;22.05;;;27.30;99.90;;;;;;5025371;28;20057;-48
2023/09/10 09:48:28;;;;;;;24.52;22.48;;;27.30;99.90;;;;;;5021031;28;20357;-47
2023/09/10 09:50:55;;;;;;;23.88;21.45;;;27.30;99.90;;;;;;5027373;28;20033;-50
2023/09/10 09:53:29;;;;;;;23.33;20.40;;;27.50;99.90;;;;;;5024610;28;20280;-49
2023/09/10 09:56:05;;;;;;;27.52;25.15;;;27.50;99.90;;;;;;5027392;28;20287;-47
2023/09/10 09:58:31;;;;;;;23.80;21.80;;;27.40;99.90;;;;;;5026371;28;20045;-47
2023/09/10 10:00:57;;;;;;;23.00;20.67;;;27.50;99.90;;;;;;5026955;28;20239;-45
2023/09/10 10:03:23;;;;;;;24.90;22.63;;;27.60;99.90;;;;;;5026358;28;20033;-47
2023/09/10 10:05:51;;;;;;;23.60;21.17;;;27.80;99.90;;;;;;5025759;28;20536;-45
2023/09/10 10:08:18;;;;;;;23.95;21.92;;;27.70;99.90;;;;;;5025587;28;20453;-45
2023/09/10 10:10:48;;;;;;;23.00;20.55;;;27.80;99.90;;;;;;5044169;28;20045;-46
2023/09/10 10:13:18;;;;;;;24.45;21.92;;;27.80;99.90;;;;;;5044967;28;20355;-45
2023/09/10 10:15:52;;;;;;;24.70;22.40;;;27.80;99.90;;;;;;5049468;28;20076;-45
2023/09/10 10:18:22;;;;;;;20.98;18.92;;;27.80;99.90;;;;;;5043972;28;20181;-45
2023/09/10 10:20:49;;;;;;;22.30;20.00;;;27.90;99.90;;;;;;5027569;28;20051;-45
2023/09/10 10:23:20;;;;;;;22.38;20.02;;;27.90;99.90;;;;;;5044781;28;20118;-45
2023/09/10 10:25:47;;;;;;;23.60;21.38;;;27.90;99.90;;;;;;5045945;28;20051;-44
2023/09/10 10:28:13;;;;;;;23.50;21.08;;;27.80;99.90;;;;;;5014336;28;20488;-45
2023/09/10 10:30:58;;;;;;;24.55;22.25;;;27.90;99.90;;;;;;5027899;28;20048;-46
2023/09/10 10:33:26;;;;;;;23.33;20.20;;;27.80;99.90;;;;;;5028226;28;20044;-45
2023/09/10 10:36:17;;;;;;;24.30;20.02;;;27.90;99.90;;;;;;5045475;28;20045;-46
2023/09/10 10:38:44;;;;;;;25.13;19.98;;;28.00;99.90;;;;;;5014842;28;20053;-46
2023/09/10 10:41:18;;;;;;;21.85;19.33;;;28.00;99.90;;;;;;5031298;28;20193;-47
2023/09/10 10:43:55;;;;;;;22.77;20.65;;;28.00;99.90;;;;;;5044565;28;20763;-45
2023/09/10 10:46:25;;;;;;;17.88;15.55;;;28.10;99.90;;;;;;5041273;28;20376;-46
2023/09/10 10:48:51;;;;;;;19.20;16.35;;;28.10;99.90;;;;;;5039142;28;20469;-45
2023/09/10 10:51:17;;;;;;;20.77;18.15;;;28.20;99.90;;;;;;5045256;28;20146;-46
2023/09/10 10:53:43;;;;;;;22.85;16.92;;;28.30;99.90;;;;;;5045705;28;20569;-45
2023/09/10 10:56:10;;;;;;;21.17;15.93;;;28.30;99.90;;;;;;5045964;28;20119;-47
2023/09/10 10:58:40;;;;;;;17.77;15.82;;;28.30;99.90;;;;;;5027559;28;20041;-44
2023/09/10 11:01:05;;;;;;;24.65;17.13;;;28.30;99.90;;;;;;5027766;28;20053;-44
2023/09/10 11:03:32;;;;;;;19.05;16.92;;;28.30;99.90;;;;;;5045759;28;20051;-45
2023/09/10 11:06:04;;;;;;;21.58;15.45;;;28.30;99.90;;;;;;5045878;28;20414;-46
2023/09/10 11:08:30;;;;;;;21.52;15.65;;;28.30;99.90;;;;;;5027058;28;20052;-45
2023/09/10 11:10:57;;;;;;;22.80;17.40;;;28.30;99.90;;;;;;5034143;28;20032;-45
2023/09/10 11:13:23;;;;;;;19.02;17.15;;;28.30;99.90;;;;;;5047472;28;20518;-47
2023/09/10 11:16:03;;;;;;;21.17;16.27;;;28.20;99.90;;;;;;5045889;28;20040;-44
2023/09/10 11:18:38;;;;;;;16.50;14.73;;;28.20;99.90;;;;;;5027030;28;20045;-46
2023/09/10 11:21:10;;;;;;;23.33;15.55;;;28.30;99.90;;;;;;5027085;28;20508;-44
2023/09/10 11:24:01;;;;;;;21.05;14.93;;;28.40;99.90;;;;;;5045914;28;20156;-45
2023/09/10 11:26:26;;;;;;;17.90;13.85;;;28.40;99.90;;;;;;5027351;28;20065;-44
2023/09/10 11:28:59;;;;;;;22.77;13.98;;;28.40;99.90;;;;;;5045060;28;20115;-45
2023/09/10 11:31:38;;;;;;;19.23;14.55;;;28.50;99.90;;;;;;5032181;28;20037;-45
2023/09/10 11:36:54;;;;;;;20.83;13.95;;;28.50;99.90;;;;;;5045481;28;20408;-44
2023/09/10 11:39:20;;;;;;;22.30;12.55;;;28.50;99.90;;;;;;5023760;28;20037;-44
2023/09/10 11:41:48;;;;;;;23.15;13.25;;;28.50;99.90;;;;;;5043986;28;20079;-47
2023/09/10 11:44:13;;;;;;;22.10;13.48;;;28.50;99.90;;;;;;5025742;28;20036;-46
2023/09/10 11:46:39;;;;;;;19.10;13.50;;;28.50;99.90;;;;;;5019779;28;20372;-45
2023/09/10 11:49:05;;;;;;;19.38;13.18;;;28.40;99.90;;;;;;5041410;28;20301;-45
2023/09/10 11:51:31;;;;;;;21.23;13.05;;;28.50;99.90;;;;;;5043247;28;20045;-45
2023/09/10 11:53:58;;;;;;;22.13;12.07;;;28.50;99.90;;;;;;5043930;28;20040;-45
2023/09/10 11:56:24;;;;;;;21.23;12.73;;;28.50;99.90;;;;;;5043912;28;20449;-46
2023/09/10 11:58:50;;;;;;;19.98;12.13;;;28.60;99.90;;;;;;5043730;28;20507;-44
2023/09/10 12:01:16;;;;;;;24.02;13.50;;;28.60;99.90;;;;;;5043435;28;20279;-44
2023/09/10 12:03:43;;;;;;;19.70;12.20;;;28.60;99.90;;;;;;5042534;28;20048;-46
2023/09/10 12:06:11;;;;;;;22.88;13.63;;;28.60;99.90;;;;;;5036302;28;20075;-46
2023/09/10 12:08:37;;;;;;;24.20;12.15;;;28.70;99.90;;;;;;5042542;28;20049;-48
2023/09/10 12:11:06;;;;;;;21.52;12.13;;;28.50;99.90;;;;;;5049852;28;20054;-47
2023/09/10 12:13:33;;;;;;;21.27;12.30;;;28.60;99.90;;;;;;5025745;28;20041;-46
2023/09/10 12:15:59;;;;;;;18.95;12.13;;;28.60;99.90;;;;;;5024492;28;20048;-44
2023/09/10 12:18:26;;;;;;;22.77;11.85;;;28.50;99.90;;;;;;5025817;28;20440;-45
2023/09/10 12:20:52;;;;;;;23.58;13.77;;;28.60;99.90;;;;;;5043650;28;20052;-45
2023/09/10 12:23:17;;;;;;;18.27;12.65;;;28.60;99.90;;;;;;5043570;28;20361;-45
2023/09/10 12:25:43;;;;;;;24.40;12.52;;;28.70;99.90;;;;;;5043383;28;20128;-45
2023/09/10 12:28:08;;;;;;;24.95;13.32;;;28.70;99.90;;;;;;5043508;28;20056;-46
2023/09/10 12:30:35;;;;;;;26.08;12.20;;;28.60;99.90;;;;;;5043232;28;20495;-48